createdAt,value
2018-03-27T00:01:16.954Z,18.00
2018-03-27T00:03:44.410Z,19.53
2018-03-27T00:06:11.863Z,20.77
2018-03-27T00:08:39.314Z,18.60
2018-03-27T00:11:06.815Z,21.90
2018-03-27T00:13:34.275Z,23.67
2018-03-27T00:16:01.745Z,25.37
2018-03-27T00:18:29.209Z,24.73
2018-03-27T00:20:57.519Z,24.07
2018-03-27T00:23:24.983Z,28.57
2018-03-27T00:25:52.451Z,29.37
2018-03-27T00:28:32.579Z,25.80
2018-03-27T00:31:11.880Z,23.40
2018-03-27T00:33:51.331Z,24.63
2018-03-27T00:36:31.188Z,23.80
2018-03-27T00:39:10.612Z,23.67
2018-03-27T00:44:51.776Z,20.17
2018-03-27T00:47:19.229Z,22.03
2018-03-27T00:49:46.701Z,31.40
2018-03-27T00:52:14.159Z,22.70
2018-03-27T00:54:41.608Z,21.73
2018-03-27T00:57:09.063Z,22.50
2018-03-27T00:59:36.505Z,21.37
2018-03-27T01:02:04.738Z,23.40
2018-03-27T01:04:32.209Z,24.33
2018-03-27T01:06:59.694Z,22.10
2018-03-27T01:09:27.962Z,28.37
2018-03-27T01:11:56.173Z,24.57
2018-03-27T01:14:23.631Z,27.27
2018-03-27T01:16:51.110Z,25.80
2018-03-27T01:19:19.324Z,22.57
2018-03-27T01:21:47.546Z,24.70
2018-03-27T01:24:15.041Z,25.00
2018-03-27T01:26:42.508Z,21.40
2018-03-27T01:29:09.977Z,25.13
2018-03-27T01:31:38.204Z,24.47
2018-03-27T01:34:05.676Z,25.20
2018-03-27T01:36:33.120Z,28.30
2018-03-27T01:39:00.603Z,24.13
2018-03-27T01:41:28.061Z,22.53
2018-03-27T01:43:55.537Z,28.03
2018-03-27T01:46:23.770Z,23.93
2018-03-27T01:48:51.221Z,24.53
2018-03-27T01:51:18.685Z,28.77
2018-03-27T01:53:46.139Z,24.93
2018-03-27T01:56:13.598Z,25.03
2018-03-27T01:58:41.044Z,26.47
2018-03-27T02:01:08.501Z,25.83
2018-03-27T02:03:35.953Z,25.97
2018-03-27T02:06:03.468Z,27.57
2018-03-27T02:08:31.701Z,29.57
2018-03-27T02:11:04.759Z,32.57
2018-03-27T02:13:37.961Z,26.77
2018-03-27T02:16:11.323Z,29.33
2018-03-27T02:18:45.309Z,27.87
2018-03-27T02:21:18.441Z,29.37
2018-03-27T02:23:45.907Z,27.77
2018-03-27T02:26:13.355Z,28.80
2018-03-27T02:28:40.827Z,27.27
2018-03-27T02:31:08.300Z,25.57
2018-03-27T02:33:36.554Z,32.67
2018-03-27T02:36:03.996Z,28.50
2018-03-27T02:38:31.461Z,32.67
2018-03-27T02:40:58.920Z,25.80
2018-03-27T02:43:26.367Z,32.47
2018-03-27T02:45:53.823Z,27.27
2018-03-27T02:48:21.285Z,26.10
2018-03-27T02:50:48.737Z,28.50
2018-03-27T02:53:16.189Z,26.40
2018-03-27T02:55:43.652Z,27.67
2018-03-27T02:58:11.103Z,29.97
2018-03-27T03:00:38.571Z,25.93
2018-03-27T03:03:06.036Z,27.90
2018-03-27T03:05:33.510Z,27.67
2018-03-27T03:08:00.970Z,26.43
2018-03-27T03:10:28.447Z,27.37
2018-03-27T03:12:55.894Z,28.93
2018-03-27T03:15:23.339Z,28.67
2018-03-27T03:17:50.795Z,28.40
2018-03-27T03:20:18.285Z,29.33
2018-03-27T03:22:47.427Z,28.27
2018-03-27T03:25:14.902Z,30.47
2018-03-27T03:27:42.380Z,30.30
2018-03-27T03:30:09.830Z,27.47
2018-03-27T03:32:37.282Z,31.50
2018-03-27T03:35:04.756Z,30.27
2018-03-27T03:37:32.229Z,27.57
2018-03-27T03:40:01.139Z,29.57
2018-03-27T03:42:28.595Z,25.47
2018-03-27T03:44:56.076Z,28.67
2018-03-27T03:47:23.561Z,32.57
2018-03-27T03:49:51.026Z,30.70
2018-03-27T03:52:18.477Z,33.73
2018-03-27T03:54:45.951Z,30.67
2018-03-27T03:57:14.174Z,30.00
2018-03-27T03:59:41.622Z,30.10
2018-03-27T04:02:09.620Z,34.73
2018-03-27T04:04:37.082Z,30.50
2018-03-27T04:07:04.568Z,34.20
2018-03-27T04:09:32.851Z,29.57
2018-03-27T04:12:00.285Z,29.67
2018-03-27T04:14:27.763Z,35.17
2018-03-27T04:16:56.066Z,28.20
2018-03-27T04:19:23.528Z,34.13
2018-03-27T04:21:50.997Z,28.13
2018-03-27T04:24:18.448Z,35.63
2018-03-27T04:26:45.889Z,32.77
2018-03-27T04:29:13.353Z,31.60
2018-03-27T04:31:40.815Z,34.70
2018-03-27T04:34:08.310Z,34.80
2018-03-27T04:36:35.781Z,30.97
2018-03-27T04:39:04.005Z,33.67
2018-03-27T04:41:31.626Z,31.97
2018-03-27T04:43:59.835Z,32.10
2018-03-27T04:46:27.303Z,27.53
2018-03-27T04:48:54.756Z,25.73
2018-03-27T04:51:22.221Z,27.40
2018-03-27T04:53:49.692Z,28.90
2018-03-27T04:56:17.173Z,26.27
2018-03-27T04:58:45.429Z,27.80
2018-03-27T05:01:12.881Z,30.63
2018-03-27T05:03:40.361Z,27.27
2018-03-27T05:06:07.834Z,31.63
2018-03-27T05:08:35.296Z,27.17
2018-03-27T05:11:02.784Z,24.60
2018-03-27T05:13:30.264Z,30.03
2018-03-27T05:15:57.729Z,26.80
2018-03-27T05:18:25.241Z,30.67
2018-03-27T05:20:52.680Z,28.33
2018-03-27T05:23:20.159Z,24.47
2018-03-27T05:25:47.626Z,29.00
2018-03-27T05:28:15.090Z,26.70
2018-03-27T05:30:42.561Z,29.93
2018-03-27T05:33:10.102Z,32.07
2018-03-27T05:35:37.571Z,33.87
2018-03-27T05:38:05.043Z,34.53
2018-03-27T05:40:32.519Z,33.20
2018-03-27T05:43:00.762Z,35.20
2018-03-27T05:45:28.243Z,34.27
2018-03-27T05:47:55.697Z,34.47
2018-03-27T05:50:23.131Z,37.50
2018-03-27T05:52:50.639Z,37.43
2018-03-27T05:55:18.842Z,38.63
2018-03-27T05:57:46.323Z,37.47
2018-03-27T06:00:13.795Z,33.40
2018-03-27T06:02:41.277Z,35.37
2018-03-27T06:05:09.549Z,33.27
2018-03-27T06:07:36.971Z,35.03
2018-03-27T06:10:04.433Z,30.00
2018-03-27T06:12:31.887Z,31.90
2018-03-27T06:14:59.335Z,31.53
2018-03-27T06:17:26.790Z,29.57
2018-03-27T06:19:54.258Z,30.03
2018-03-27T06:22:21.724Z,31.63
2018-03-27T06:24:49.204Z,38.27
2018-03-27T06:27:17.440Z,33.20
2018-03-27T06:29:44.906Z,32.67
2018-03-27T06:32:12.393Z,35.10
2018-03-27T06:34:40.606Z,35.03
2018-03-27T06:37:08.072Z,33.23
2018-03-27T06:39:35.521Z,33.57
2018-03-27T06:42:03.016Z,33.83
2018-03-27T06:44:30.449Z,36.40
2018-03-27T06:46:57.929Z,36.07
2018-03-27T06:49:25.372Z,35.57
2018-03-27T06:51:52.869Z,41.43
2018-03-27T06:54:21.097Z,34.20
2018-03-27T06:56:48.550Z,30.13
2018-03-27T06:59:16.000Z,33.13
2018-03-27T07:01:43.472Z,30.47
2018-03-27T07:04:10.932Z,34.40
2018-03-27T07:06:38.410Z,30.73
2018-03-27T07:09:05.882Z,31.73
2018-03-27T07:11:33.365Z,32.83
2018-03-27T07:14:01.588Z,33.20
2018-03-27T07:16:29.825Z,35.20
2018-03-27T07:18:57.287Z,30.93
2018-03-27T07:21:24.773Z,29.53
2018-03-27T07:23:52.255Z,33.13
2018-03-27T07:26:20.507Z,28.43
2018-03-27T07:28:47.981Z,31.03
2018-03-27T07:31:16.234Z,34.27
2018-03-27T07:33:43.702Z,33.67
2018-03-27T07:36:11.154Z,26.50
2018-03-27T07:38:38.662Z,28.00
2018-03-27T07:41:06.109Z,35.00
2018-03-27T07:43:33.563Z,36.53
2018-03-27T07:46:01.054Z,33.97
2018-03-27T07:48:29.336Z,34.80
2018-03-27T07:51:03.570Z,33.70
2018-03-27T07:53:31.266Z,32.87
2018-03-27T07:55:58.741Z,33.50
2018-03-27T07:58:26.184Z,35.13
2018-03-27T08:00:53.645Z,38.37
2018-03-27T08:03:21.117Z,35.10
2018-03-27T08:05:48.584Z,30.43
2018-03-27T08:08:16.048Z,31.23
2018-03-27T08:10:43.496Z,33.77
2018-03-27T08:13:10.987Z,29.40
2018-03-27T08:15:38.453Z,31.50
2018-03-27T08:18:05.935Z,29.20
2018-03-27T08:20:33.415Z,31.43
2018-03-27T08:23:00.864Z,32.03
2018-03-27T08:25:28.337Z,31.07
2018-03-27T08:27:55.806Z,29.47
2018-03-27T08:30:23.255Z,30.80
2018-03-27T08:32:50.717Z,28.97
2018-03-27T08:35:18.173Z,33.23
2018-03-27T08:37:45.627Z,27.53
2018-03-27T08:40:13.118Z,28.87
2018-03-27T08:42:40.572Z,26.87
2018-03-27T08:45:08.050Z,32.60
2018-03-27T08:47:36.291Z,31.33
2018-03-27T08:50:03.747Z,30.23
2018-03-27T08:52:31.191Z,29.83
2018-03-27T08:54:58.663Z,29.30
2018-03-27T08:57:26.149Z,28.80
2018-03-27T08:59:53.658Z,27.83
2018-03-27T09:02:21.113Z,32.80
2018-03-27T09:04:48.581Z,30.27
2018-03-27T09:07:16.076Z,27.20
2018-03-27T09:09:44.311Z,28.40
2018-03-27T09:12:11.772Z,29.50
2018-03-27T09:14:39.268Z,27.87
2018-03-27T09:17:07.511Z,31.47
2018-03-27T09:19:34.974Z,26.73
2018-03-27T09:22:02.445Z,26.50
2018-03-27T09:24:30.694Z,27.93
2018-03-27T09:26:58.155Z,25.53
2018-03-27T09:29:25.613Z,25.73
2018-03-27T09:31:53.075Z,25.40
2018-03-27T09:34:20.525Z,19.60
2018-03-27T09:36:47.996Z,17.03
2018-03-27T09:39:15.494Z,15.17
2018-03-27T09:41:42.975Z,16.67
2018-03-27T09:44:10.448Z,15.73
2018-03-27T09:46:37.907Z,16.93
2018-03-27T09:49:05.444Z,20.03
2018-03-27T09:51:33.640Z,17.40
2018-03-27T09:54:01.172Z,17.00
2018-03-27T09:56:28.665Z,16.00
2018-03-27T09:58:56.145Z,10.43
2018-03-27T10:01:28.299Z,15.43
2018-03-27T10:03:55.769Z,12.77
2018-03-27T10:06:23.986Z,14.77
2018-03-27T10:08:51.505Z,15.50
2018-03-27T10:11:18.971Z,15.10
2018-03-27T10:13:46.435Z,12.93
2018-03-27T10:16:13.932Z,16.23
2018-03-27T10:18:41.389Z,14.13
2018-03-27T10:21:08.881Z,15.20
2018-03-27T10:23:37.090Z,13.47
2018-03-27T10:26:04.544Z,14.90
2018-03-27T10:28:32.010Z,14.50
2018-03-27T10:30:59.481Z,20.17
2018-03-27T10:33:26.929Z,14.97
2018-03-27T10:35:54.416Z,12.33
2018-03-27T10:38:21.877Z,10.97
2018-03-27T10:40:49.360Z,13.73
2018-03-27T10:43:17.585Z,10.93
2018-03-27T10:45:45.033Z,13.20
2018-03-27T10:48:12.504Z,13.77
2018-03-27T10:50:39.995Z,11.47
2018-03-27T10:53:07.460Z,14.40
2018-03-27T10:55:35.730Z,13.03
2018-03-27T10:58:03.177Z,16.80
2018-03-27T11:00:30.641Z,15.73
2018-03-27T11:02:58.885Z,15.27
2018-03-27T11:05:26.349Z,15.33
2018-03-27T11:07:53.809Z,15.73
2018-03-27T11:10:21.294Z,18.47
2018-03-27T11:12:49.504Z,12.67
2018-03-27T11:15:16.975Z,12.17
2018-03-27T11:17:44.457Z,16.83
2018-03-27T11:20:11.903Z,14.33
2018-03-27T11:22:39.621Z,16.53
2018-03-27T11:25:07.926Z,13.27
2018-03-27T11:27:35.429Z,16.90
2018-03-27T11:30:03.676Z,16.00
2018-03-27T11:32:31.155Z,13.90
2018-03-27T11:34:58.628Z,16.20
2018-03-27T11:37:26.866Z,19.00
2018-03-27T11:39:54.365Z,21.63
2018-03-27T11:42:21.829Z,18.80
2018-03-27T11:44:49.296Z,20.30
2018-03-27T11:47:16.804Z,17.27
2018-03-27T11:49:44.257Z,19.57
2018-03-27T11:52:11.717Z,16.00
2018-03-27T11:54:39.230Z,20.60
2018-03-27T11:57:07.436Z,20.77
2018-03-27T11:59:34.918Z,22.67
2018-03-27T12:02:03.154Z,23.47
2018-03-27T12:04:30.614Z,22.57
2018-03-27T12:06:58.068Z,21.83
2018-03-27T12:09:25.557Z,23.63
2018-03-27T12:11:53.021Z,19.73
2018-03-27T12:14:21.265Z,23.00
2018-03-27T12:16:48.721Z,21.60
2018-03-27T12:19:16.216Z,22.63
2018-03-27T12:21:44.452Z,23.30
2018-03-27T12:24:11.943Z,24.27
2018-03-27T12:26:40.215Z,24.27
2018-03-27T12:29:08.465Z,23.77
2018-03-27T12:31:35.945Z,21.07
2018-03-27T12:34:03.393Z,18.77
2018-03-27T12:36:30.847Z,21.27
2018-03-27T12:38:58.335Z,21.90
2018-03-27T12:41:27.257Z,25.47
2018-03-27T12:43:54.729Z,21.13
2018-03-27T12:46:22.185Z,20.33
2018-03-27T12:48:49.641Z,23.57
2018-03-27T12:51:17.094Z,21.30
2018-03-27T12:53:44.564Z,21.30
2018-03-27T12:56:12.043Z,23.37
2018-03-27T12:58:39.503Z,22.13
2018-03-27T13:01:06.982Z,19.00
2018-03-27T13:03:34.432Z,21.60
2018-03-27T13:06:02.687Z,19.63
2018-03-27T13:08:30.165Z,20.80
2018-03-27T13:10:58.490Z,20.50
2018-03-27T13:13:25.944Z,23.30
2018-03-27T13:15:53.412Z,23.10
2018-03-27T13:18:20.911Z,25.00
2018-03-27T13:20:48.369Z,20.93
2018-03-27T13:23:15.840Z,20.53
2018-03-27T13:25:43.335Z,22.77
2018-03-27T13:28:10.797Z,25.93
2018-03-27T13:30:38.286Z,25.63
2018-03-27T13:33:05.742Z,20.87
2018-03-27T13:35:33.972Z,23.97
2018-03-27T13:38:01.478Z,20.83
2018-03-27T13:40:29.706Z,25.90
2018-03-27T13:42:57.971Z,25.33
2018-03-27T13:45:25.437Z,19.93
2018-03-27T13:47:52.876Z,22.67
2018-03-27T13:50:20.334Z,22.17
2018-03-27T13:52:47.841Z,24.53
2018-03-27T13:55:15.305Z,26.27
2018-03-27T13:57:43.545Z,25.53
2018-03-27T14:00:11.009Z,22.33
2018-03-27T14:02:38.482Z,26.33
2018-03-27T14:05:05.962Z,23.53
2018-03-27T14:07:34.210Z,22.10
2018-03-27T14:10:01.685Z,21.60
2018-03-27T14:12:29.962Z,27.40
2018-03-27T14:14:58.235Z,23.67
2018-03-27T14:17:25.674Z,24.13
2018-03-27T14:19:53.161Z,25.00
2018-03-27T14:22:21.385Z,33.10
2018-03-27T14:24:48.837Z,24.17
2018-03-27T14:27:16.294Z,24.33
2018-03-27T14:29:43.773Z,27.27
2018-03-27T14:32:11.260Z,25.20
2018-03-27T14:34:39.494Z,23.77
2018-03-27T14:37:06.999Z,22.60
2018-03-27T14:39:35.241Z,24.43
2018-03-27T14:42:02.693Z,22.20
2018-03-27T14:44:30.509Z,21.23
2018-03-27T14:46:57.938Z,23.53
2018-03-27T14:49:26.187Z,22.30
2018-03-27T14:51:53.637Z,22.47
2018-03-27T14:54:21.117Z,21.90
2018-03-27T14:56:48.600Z,23.63
2018-03-27T14:59:16.101Z,23.40
2018-03-27T15:01:43.565Z,23.00
2018-03-27T15:04:11.025Z,27.53
2018-03-27T15:06:38.509Z,21.80
2018-03-27T15:09:05.991Z,22.23
2018-03-27T15:11:33.481Z,21.53
2018-03-27T15:14:00.952Z,21.53
2018-03-27T15:16:28.438Z,23.97
2018-03-27T15:18:55.916Z,23.27
2018-03-27T15:21:23.427Z,23.37
2018-03-27T15:23:50.909Z,22.80
2018-03-27T15:26:18.427Z,25.27
2018-03-27T15:28:45.917Z,22.00
2018-03-27T15:31:14.286Z,23.93
2018-03-27T15:33:41.801Z,24.33
2018-03-27T15:36:09.359Z,24.77
2018-03-27T15:38:36.849Z,25.70
2018-03-27T15:41:04.366Z,25.50
2018-03-27T15:43:32.649Z,26.87
2018-03-27T15:46:00.159Z,28.37
2018-03-27T15:48:27.677Z,22.50
2018-03-27T15:50:55.171Z,23.13
2018-03-27T15:53:22.685Z,19.17
2018-03-27T15:55:50.170Z,22.83
2018-03-27T15:58:17.668Z,23.60
2018-03-27T16:00:45.158Z,25.07
2018-03-27T16:03:12.677Z,25.57
2018-03-27T16:05:40.922Z,22.73
2018-03-27T16:08:08.925Z,24.10
2018-03-27T16:10:37.213Z,26.67
2018-03-27T16:13:08.849Z,22.77
2018-03-27T16:15:36.386Z,28.23
2018-03-27T16:18:06.843Z,27.20
2018-03-27T16:20:35.364Z,25.10
2018-03-27T16:23:03.587Z,28.07
2018-03-27T16:25:31.835Z,16.17
2018-03-27T16:27:59.327Z,14.80
2018-03-27T16:30:28.058Z,13.83
2018-03-27T16:32:55.965Z,14.90
2018-03-27T16:35:23.476Z,12.27
2018-03-27T16:37:51.504Z,12.20
2018-03-27T16:40:18.987Z,14.23
2018-03-27T16:42:46.475Z,14.67
2018-03-27T16:45:14.746Z,20.60
2018-03-27T16:47:42.232Z,18.23
2018-03-27T16:50:09.754Z,15.90
2018-03-27T16:52:37.305Z,15.57
2018-03-27T16:55:04.844Z,15.93
2018-03-27T16:57:33.316Z,19.20
2018-03-27T17:00:01.565Z,15.00
2018-03-27T17:02:32.328Z,17.53
2018-03-27T17:05:00.575Z,17.80
2018-03-27T17:07:28.067Z,18.37
2018-03-27T17:09:56.110Z,26.87
2018-03-27T17:12:24.628Z,25.23
2018-03-27T17:14:52.139Z,20.77
2018-03-27T17:17:19.638Z,20.10
2018-03-27T17:19:47.155Z,32.60
2018-03-27T17:22:15.211Z,25.07
2018-03-27T17:24:42.755Z,23.47
2018-03-27T17:27:13.044Z,24.97
2018-03-27T17:29:40.583Z,25.73
2018-03-27T17:32:08.114Z,25.53
2018-03-27T17:34:35.648Z,25.90
2018-03-27T17:37:03.169Z,24.63
2018-03-27T17:39:32.230Z,28.30
2018-03-27T17:42:01.424Z,28.50
2018-03-27T17:44:28.980Z,32.13
2018-03-27T17:46:57.079Z,28.47
2018-03-27T17:49:24.575Z,32.60
2018-03-27T17:51:52.111Z,30.67
2018-03-27T17:54:21.328Z,31.87
2018-03-27T17:56:48.824Z,33.03
2018-03-27T17:59:17.535Z,40.37
2018-03-27T18:01:46.615Z,37.80
2018-03-27T18:04:15.160Z,38.13
2018-03-27T18:06:49.522Z,35.20
2018-03-27T18:09:17.044Z,39.23
2018-03-27T18:11:44.663Z,46.40
2018-03-27T18:14:12.812Z,50.23
2018-03-27T18:16:40.331Z,43.13
2018-03-27T18:19:09.575Z,42.87
2018-03-27T18:21:37.382Z,43.17
2018-03-27T18:24:06.216Z,43.60
2018-03-27T18:26:34.772Z,50.67
2018-03-27T18:29:05.429Z,61.10
2018-03-27T18:31:33.973Z,43.23
2018-03-27T18:34:02.976Z,50.40
2018-03-27T18:36:31.456Z,38.50
2018-03-27T18:38:58.998Z,48.93
2018-03-27T18:41:26.546Z,39.33
2018-03-27T18:44:01.143Z,42.10
2018-03-27T18:46:29.412Z,37.57
2018-03-27T18:48:58.764Z,34.30
2018-03-27T18:51:26.252Z,39.07
2018-03-27T18:53:53.877Z,37.50
2018-03-27T18:56:23.038Z,36.60
2018-03-27T18:58:51.353Z,36.00
2018-03-27T19:01:19.501Z,33.63
2018-03-27T19:03:47.056Z,34.67
2018-03-27T19:06:16.034Z,36.67
2018-03-27T19:08:46.726Z,31.63
2018-03-27T19:11:14.740Z,36.33
2018-03-27T19:13:42.642Z,35.50
2018-03-27T19:16:13.657Z,34.80
2018-03-27T19:18:43.477Z,33.13
2018-03-27T19:21:11.953Z,34.17
2018-03-27T19:23:40.209Z,33.57
2018-03-27T19:26:07.800Z,32.57
2018-03-27T19:28:35.335Z,29.73
2018-03-27T19:31:03.991Z,34.43
2018-03-27T19:33:36.434Z,34.37
2018-03-27T19:36:04.823Z,32.73
2018-03-27T19:38:33.794Z,37.53
2018-03-27T19:41:02.125Z,33.87
2018-03-27T19:43:32.808Z,31.57
2018-03-27T19:46:01.141Z,33.23
2018-03-27T19:48:29.561Z,32.00
2018-03-27T19:50:57.126Z,31.67
2018-03-27T19:53:24.667Z,27.67
2018-03-27T19:55:52.172Z,30.33
2018-03-27T19:58:21.993Z,26.07
2018-03-27T20:00:50.409Z,32.43
2018-03-27T20:03:17.948Z,33.73
2018-03-27T20:08:37.787Z,28.67
2018-03-27T20:11:06.060Z,31.63
2018-03-27T20:13:34.686Z,26.80
2018-03-27T20:16:04.243Z,27.00
2018-03-27T20:18:32.001Z,27.77
2018-03-27T20:21:00.803Z,27.03
2018-03-27T20:23:28.771Z,24.57
2018-03-27T20:25:57.224Z,22.77
2018-03-27T20:28:26.459Z,25.10
2018-03-27T20:30:56.871Z,23.07
2018-03-27T20:33:25.281Z,27.63
2018-03-27T20:35:53.132Z,27.27
2018-03-27T20:38:21.645Z,25.70
2018-03-27T20:40:51.386Z,24.53
2018-03-27T20:43:20.403Z,27.00
2018-03-27T20:45:49.261Z,23.33
2018-03-27T20:48:17.065Z,29.10
2018-03-27T20:50:44.607Z,25.03
2018-03-27T20:53:12.719Z,23.73
2018-03-27T20:55:41.353Z,24.63
2018-03-27T20:58:11.041Z,25.30
2018-03-27T21:00:39.381Z,22.30
2018-03-27T21:03:08.155Z,22.77
2018-03-27T21:08:10.793Z,22.90
2018-03-27T21:10:39.439Z,24.03
2018-03-27T21:13:07.619Z,22.30
2018-03-27T21:15:35.471Z,22.47
2018-03-27T21:18:05.696Z,23.27
2018-03-27T21:20:33.360Z,25.87
2018-03-27T21:25:34.661Z,23.33
2018-03-27T21:28:03.036Z,23.47
2018-03-27T21:30:30.893Z,20.97
2018-03-27T21:32:58.452Z,23.20
2018-03-27T21:35:26.744Z,20.20
2018-03-27T21:37:55.107Z,24.53
2018-03-27T21:40:22.645Z,24.80
2018-03-27T21:42:50.167Z,25.80
2018-03-27T21:45:17.685Z,23.23
2018-03-27T21:47:45.183Z,25.60
2018-03-27T21:50:12.712Z,21.23
2018-03-27T21:52:40.267Z,23.33
2018-03-27T21:55:07.747Z,21.60
2018-03-27T21:57:36.007Z,20.43
2018-03-27T22:00:04.307Z,23.77
2018-03-27T22:02:32.731Z,22.80
2018-03-27T22:05:00.842Z,26.63
2018-03-27T22:07:29.103Z,24.00
2018-03-27T22:09:57.404Z,23.83
2018-03-27T22:12:25.665Z,24.97
2018-03-27T22:14:53.910Z,28.27
2018-03-27T22:17:21.431Z,32.50
2018-03-27T22:19:48.937Z,25.90
2018-03-27T22:22:16.447Z,26.37
2018-03-27T22:24:43.951Z,24.17
2018-03-27T22:27:11.437Z,27.27
2018-03-27T22:29:39.691Z,28.37
2018-03-27T22:32:07.195Z,29.97
2018-03-27T22:34:34.707Z,24.40
2018-03-27T22:37:02.181Z,30.20
2018-03-27T22:39:30.429Z,29.97
2018-03-27T22:41:57.924Z,27.97
2018-03-27T22:44:26.162Z,28.23
2018-03-27T22:46:53.646Z,30.37
2018-03-27T22:49:21.934Z,34.60
2018-03-27T22:51:49.388Z,31.40
2018-03-27T22:54:16.863Z,32.13
2018-03-27T22:56:44.332Z,27.40
2018-03-27T22:59:11.791Z,28.73
2018-03-27T23:01:39.251Z,30.57
2018-03-27T23:04:06.721Z,26.13
2018-03-27T23:06:34.176Z,26.00
2018-03-27T23:09:01.652Z,27.87
2018-03-27T23:11:29.120Z,30.07
2018-03-27T23:13:56.585Z,28.60
2018-03-27T23:16:24.837Z,26.50
2018-03-27T23:18:53.073Z,30.43
2018-03-27T23:21:20.541Z,26.90
2018-03-27T23:23:47.991Z,26.33
2018-03-27T23:26:15.441Z,25.10
2018-03-27T23:28:42.901Z,27.37
2018-03-27T23:31:10.337Z,30.97
2018-03-27T23:33:37.822Z,31.50
2018-03-27T23:36:05.289Z,27.10
2018-03-27T23:38:33.509Z,26.93
2018-03-27T23:41:01.729Z,26.20
2018-03-27T23:43:29.192Z,26.83
2018-03-27T23:45:56.676Z,24.47
2018-03-27T23:48:24.132Z,24.17
2018-03-27T23:50:51.593Z,22.87
2018-03-27T23:53:19.093Z,28.10
2018-03-27T23:55:46.771Z,25.10
2018-03-27T23:58:14.235Z,26.30
